Time;durP1;ratioP1;P1;durP2;ratioP2;P2;SDS_P1;SDS_P2;PMS_P1;PMS_P2;Temp;Humidity;BMP_temperature;BMP_pressure;BME280_temperature;BME280_humidity;BME280_pressure;Samples;Min_cycle;Max_cycle;Signal;HPM_P1;HPM_P2
2022/08/03 00:01:38;;;;;;;10.82;5.10;;;19.50;99.90;;;;;;4976541;28;20159;-55
2022/08/03 00:04:05;;;;;;;13.70;4.60;;;19.50;99.90;;;;;;4976865;28;20105;-53
2022/08/03 00:06:31;;;;;;;9.52;4.15;;;19.40;99.90;;;;;;4980256;28;20057;-55
2022/08/03 00:08:56;;;;;;;9.90;4.60;;;19.40;99.90;;;;;;4985761;28;20181;-54
2022/08/03 00:11:22;;;;;;;7.65;4.25;;;19.40;99.90;;;;;;4977727;28;20132;-53
2022/08/03 00:13:48;;;;;;;11.25;4.07;;;19.30;99.90;;;;;;4976146;28;20046;-55
2022/08/03 00:16:14;;;;;;;8.15;3.97;;;19.40;99.90;;;;;;4978321;28;20378;-54
2022/08/03 00:18:40;;;;;;;10.55;4.10;;;19.30;99.90;;;;;;4979453;28;20050;-54
2022/08/03 00:21:05;;;;;;;11.25;4.40;;;19.30;99.90;;;;;;4981045;28;20138;-53
2022/08/03 00:23:31;;;;;;;9.32;3.85;;;19.30;99.90;;;;;;4981112;28;20046;-53
2022/08/03 00:25:57;;;;;;;9.27;3.75;;;19.30;99.90;;;;;;4981385;28;20047;-53
2022/08/03 00:28:23;;;;;;;9.77;3.83;;;19.30;99.90;;;;;;4980892;28;20042;-54
2022/08/03 00:30:48;;;;;;;11.40;3.78;;;19.30;99.90;;;;;;4980630;28;20046;-54
2022/08/03 00:33:15;;;;;;;7.38;3.65;;;19.40;99.90;;;;;;4980615;28;20048;-53
2022/08/03 00:35:41;;;;;;;7.88;3.38;;;19.30;99.90;;;;;;4981441;28;20096;-54
2022/08/03 00:38:06;;;;;;;9.18;4.13;;;19.30;99.90;;;;;;4981046;28;20046;-55
2022/08/03 00:40:33;;;;;;;10.90;3.88;;;19.30;99.90;;;;;;4980755;28;20042;-54
2022/08/03 00:43:04;;;;;;;10.18;3.33;;;19.30;99.90;;;;;;4980742;28;20046;-54
2022/08/03 00:45:42;;;;;;;6.22;3.35;;;19.30;99.90;;;;;;4980582;28;20397;-53
2022/08/03 00:48:10;;;;;;;9.52;2.90;;;19.30;99.90;;;;;;4979210;28;20097;-53
2022/08/03 00:50:38;;;;;;;8.20;2.85;;;19.20;99.90;;;;;;4980549;28;20120;-53
2022/08/03 00:53:06;;;;;;;10.85;3.75;;;19.30;99.90;;;;;;4981013;28;20050;-56
2022/08/03 00:55:32;;;;;;;9.73;3.47;;;19.30;99.90;;;;;;4980560;28;20042;-54
2022/08/03 00:58:00;;;;;;;7.72;2.58;;;19.30;99.90;;;;;;4979849;28;20128;-52
2022/08/03 01:00:27;;;;;;;10.32;2.72;;;19.30;99.90;;;;;;4980307;28;20038;-54
2022/08/03 01:02:53;;;;;;;7.82;2.83;;;19.30;99.90;;;;;;4979733;28;20042;-54
2022/08/03 01:05:20;;;;;;;5.03;2.60;;;19.20;99.90;;;;;;4979570;28;20082;-52
2022/08/03 01:08:14;;;;;;;7.95;2.50;;;19.20;99.90;;;;;;4990644;28;20125;-53
2022/08/03 01:13:17;;;;;;;6.68;2.50;;;19.20;99.90;;;;;;4976088;23;20059;-53
2022/08/03 01:15:53;;;;;;;7.65;2.88;;;19.20;99.90;;;;;;4961699;28;20054;-55
2022/08/03 01:18:37;;;;;;;7.28;2.63;;;19.20;99.90;;;;;;4959091;28;20039;-55
2022/08/03 01:21:09;;;;;;;8.48;2.88;;;19.10;99.90;;;;;;4961137;28;20050;-54
2022/08/03 01:23:47;;;;;;;8.55;2.95;;;19.10;99.90;;;;;;4960745;28;20312;-54
2022/08/03 01:26:40;;;;;;;5.70;2.28;;;19.10;99.90;;;;;;4960770;28;20413;-53
2022/08/03 01:29:30;;;;;;;6.75;2.78;;;19.00;99.90;;;;;;4959469;28;20174;-55
2022/08/03 01:32:10;;;;;;;6.65;2.80;;;19.00;99.90;;;;;;4959694;28;20046;-53
2022/08/03 01:34:44;;;;;;;8.18;2.45;;;19.00;99.90;;;;;;4960059;28;20590;-54
2022/08/03 01:37:11;;;;;;;6.07;2.10;;;19.10;99.90;;;;;;4960747;28;20058;-55
2022/08/03 01:39:39;;;;;;;6.80;2.00;;;19.10;99.90;;;;;;4960249;28;20057;-54
2022/08/03 01:42:07;;;;;;;10.07;2.15;;;19.20;99.90;;;;;;4959884;28;20320;-54
2022/08/03 01:44:39;;;;;;;8.60;2.10;;;19.20;99.90;;;;;;4959775;28;20097;-54
2022/08/03 01:47:06;;;;;;;8.20;2.42;;;19.20;99.90;;;;;;4959795;28;20054;-53
2022/08/03 01:49:37;;;;;;;8.75;2.05;;;19.10;99.90;;;;;;4959978;28;20047;-53
2022/08/03 01:52:04;;;;;;;7.53;1.65;;;19.10;99.90;;;;;;4959894;28;20147;-53
2022/08/03 01:54:35;;;;;;;6.07;1.73;;;19.10;99.90;;;;;;4960386;28;20043;-54
2022/08/03 01:57:02;;;;;;;7.18;2.00;;;19.10;99.90;;;;;;4960362;28;20047;-54
2022/08/03 01:59:31;;;;;;;9.00;2.05;;;19.00;99.90;;;;;;4959261;28;20433;-54
2022/08/03 02:01:58;;;;;;;9.30;2.35;;;19.00;99.90;;;;;;4959356;28;20050;-54
2022/08/03 02:04:26;;;;;;;5.70;2.22;;;19.00;99.90;;;;;;4959494;28;20046;-53
2022/08/03 02:06:53;;;;;;;5.30;1.83;;;18.90;99.90;;;;;;4965974;28;20069;-53
2022/08/03 02:09:21;;;;;;;7.63;2.03;;;18.90;99.90;;;;;;4964578;28;20049;-55
2022/08/03 02:11:47;;;;;;;6.20;1.88;;;18.80;99.90;;;;;;4959950;28;20424;-54
2022/08/03 02:14:14;;;;;;;11.63;2.40;;;18.90;99.90;;;;;;4960263;28;20719;-53
2022/08/03 02:16:41;;;;;;;5.63;1.80;;;18.80;99.90;;;;;;4958401;28;20057;-53
2022/08/03 02:19:09;;;;;;;9.82;2.28;;;18.70;99.90;;;;;;4942708;28;20054;-54
2022/08/03 02:21:36;;;;;;;11.70;2.30;;;18.70;99.90;;;;;;4958555;28;20054;-53
2022/08/03 02:24:04;;;;;;;5.50;2.10;;;18.70;99.90;;;;;;4958711;28;20137;-54
2022/08/03 02:26:30;;;;;;;7.18;2.42;;;18.60;99.90;;;;;;4958720;28;20150;-54
2022/08/03 02:29:02;;;;;;;7.93;2.15;;;18.60;99.90;;;;;;4959896;28;20049;-54
2022/08/03 02:31:32;;;;;;;8.05;2.13;;;18.30;99.90;;;;;;4958780;28;20089;-54
2022/08/03 02:34:05;;;;;;;7.90;2.53;;;18.50;99.90;;;;;;4959338;28;20458;-53
2022/08/03 02:36:36;;;;;;;8.38;2.63;;;18.50;99.90;;;;;;4959375;28;20413;-54
2022/08/03 02:39:04;;;;;;;7.22;2.90;;;18.50;99.90;;;;;;4959619;28;20054;-54
2022/08/03 02:41:39;;;;;;;8.15;3.10;;;18.50;99.90;;;;;;4958162;28;20049;-56
2022/08/03 02:44:08;;;;;;;9.20;3.28;;;18.50;99.90;;;;;;4959624;28;20534;-55
2022/08/03 02:46:38;;;;;;;9.02;3.63;;;18.50;99.90;;;;;;4958539;28;20050;-54
2022/08/03 02:49:05;;;;;;;9.88;3.80;;;18.50;99.90;;;;;;4958594;28;20093;-53
2022/08/03 02:51:33;;;;;;;9.98;3.20;;;18.50;99.90;;;;;;4959002;28;20051;-54
2022/08/03 02:54:02;;;;;;;12.00;3.40;;;18.50;99.90;;;;;;4959255;28;20055;-54
2022/08/03 02:56:28;;;;;;;10.65;4.10;;;18.40;99.90;;;;;;4941903;28;20042;-54
2022/08/03 02:58:57;;;;;;;7.68;3.67;;;18.40;99.90;;;;;;4941283;28;20050;-54
2022/08/03 03:01:25;;;;;;;9.77;3.45;;;18.40;99.90;;;;;;4957941;28;20054;-54
2022/08/03 03:03:52;;;;;;;8.32;3.42;;;18.40;99.90;;;;;;4959026;28;20134;-58
2022/08/03 03:06:19;;;;;;;10.05;3.60;;;18.40;99.90;;;;;;4962425;28;20046;-53
2022/08/03 03:08:46;;;;;;;9.10;3.58;;;18.40;99.90;;;;;;4970669;28;20050;-54
2022/08/03 03:11:14;;;;;;;11.18;3.92;;;18.40;99.90;;;;;;4960933;28;20058;-53
2022/08/03 03:13:45;;;;;;;7.40;3.40;;;18.30;99.90;;;;;;4977970;28;20128;-54
2022/08/03 03:16:12;;;;;;;8.10;3.25;;;18.30;99.90;;;;;;4978291;28;20076;-54
2022/08/03 03:18:39;;;;;;;9.00;3.33;;;18.30;99.90;;;;;;4977972;28;20145;-53
2022/08/03 03:21:07;;;;;;;9.35;3.78;;;18.20;99.90;;;;;;4978324;28;20091;-52
2022/08/03 03:23:36;;;;;;;9.20;3.90;;;18.20;99.90;;;;;;4977350;28;20050;-53
2022/08/03 03:26:02;;;;;;;8.60;3.78;;;18.20;99.90;;;;;;4978279;28;20050;-54
2022/08/03 03:28:29;;;;;;;8.15;3.67;;;18.20;99.90;;;;;;4960403;28;20137;-52
2022/08/03 03:30:55;;;;;;;13.27;3.80;;;18.20;99.90;;;;;;4978834;28;20125;-54
2022/08/03 03:33:21;;;;;;;8.32;3.60;;;18.20;99.90;;;;;;4976687;28;20438;-54
2022/08/03 03:35:47;;;;;;;12.25;4.10;;;18.10;99.90;;;;;;4978096;28;20128;-51
2022/08/03 03:38:13;;;;;;;10.38;3.55;;;18.10;99.90;;;;;;4978574;28;20130;-55
2022/08/03 03:40:39;;;;;;;7.45;3.78;;;18.10;99.90;;;;;;4978278;28;20121;-54
2022/08/03 03:43:10;;;;;;;9.65;3.47;;;18.10;99.90;;;;;;4977377;28;20038;-54
2022/08/03 03:45:36;;;;;;;9.05;3.92;;;18.00;99.90;;;;;;4977707;28;20069;-53
2022/08/03 03:48:06;;;;;;;10.60;3.60;;;18.00;99.90;;;;;;4977463;28;20038;-53
2022/08/03 03:50:34;;;;;;;9.63;4.05;;;18.00;99.90;;;;;;4976983;28;20050;-52
2022/08/03 03:53:03;;;;;;;8.45;3.75;;;18.00;99.90;;;;;;4979543;28;20402;-54
2022/08/03 03:55:29;;;;;;;8.65;3.97;;;18.00;99.90;;;;;;4981436;28;20034;-54
2022/08/03 03:57:55;;;;;;;7.97;3.53;;;18.00;99.90;;;;;;4964301;28;20046;-54
2022/08/03 04:00:22;;;;;;;10.93;4.00;;;18.00;99.90;;;;;;4980638;28;20141;-51
2022/08/03 04:02:47;;;;;;;10.05;4.22;;;18.00;99.90;;;;;;4981299;28;20096;-54
2022/08/03 04:11:10;;;;;;;11.05;4.20;;;18.00;99.90;;;;;;4981260;28;20054;-54
2022/08/03 04:13:37;;;;;;;9.35;3.70;;;17.90;99.90;;;;;;4981504;28;20050;-54
2022/08/03 04:16:05;;;;;;;5.90;3.28;;;18.00;99.90;;;;;;4981306;28;20047;-57
2022/08/03 04:18:34;;;;;;;6.65;3.70;;;17.90;99.90;;;;;;4980521;28;20046;-54
2022/08/03 04:21:07;;;;;;;11.65;3.90;;;17.90;99.90;;;;;;4964148;28;20050;-54
2022/08/03 04:23:36;;;;;;;9.88;4.03;;;18.00;99.90;;;;;;4981094;28;20417;-53
2022/08/03 04:26:04;;;;;;;10.35;4.60;;;18.00;99.90;;;;;;4981133;28;20057;-53
2022/08/03 04:28:33;;;;;;;6.45;3.88;;;18.00;99.90;;;;;;4981246;28;20145;-53
2022/08/03 04:31:00;;;;;;;7.97;3.90;;;18.00;99.90;;;;;;4981600;28;20629;-54
2022/08/03 04:33:27;;;;;;;10.25;4.22;;;18.00;99.90;;;;;;4980813;28;20046;-54
2022/08/03 04:35:56;;;;;;;9.45;3.97;;;18.00;99.90;;;;;;4980279;28;20133;-53
2022/08/03 04:38:24;;;;;;;11.00;4.53;;;18.10;99.90;;;;;;4963188;28;20096;-54
2022/08/03 04:40:51;;;;;;;12.95;4.10;;;18.10;99.90;;;;;;4981315;28;20549;-54
2022/08/03 04:43:18;;;;;;;10.18;4.18;;;18.10;99.90;;;;;;4980694;28;20038;-54
2022/08/03 04:45:46;;;;;;;10.43;4.40;;;18.00;99.90;;;;;;4981003;28;20054;-54
2022/08/03 04:48:14;;;;;;;10.77;4.32;;;18.10;99.90;;;;;;4980277;28;20050;-54
2022/08/03 04:50:40;;;;;;;8.80;4.55;;;18.10;99.90;;;;;;4963135;28;20049;-53
2022/08/03 04:53:06;;;;;;;11.80;4.60;;;18.10;99.90;;;;;;4980300;28;20100;-54
2022/08/03 04:55:33;;;;;;;11.50;4.53;;;18.40;99.90;;;;;;4981090;28;20787;-54
2022/08/03 04:58:00;;;;;;;11.25;4.13;;;18.70;99.90;;;;;;4980493;28;20042;-53
2022/08/03 05:00:26;;;;;;;9.23;3.70;;;19.10;99.90;;;;;;4980357;28;20078;-55
2022/08/03 05:02:53;;;;;;;9.63;3.78;;;19.30;99.90;;;;;;4979867;28;20093;-54
2022/08/03 05:05:19;;;;;;;7.93;3.63;;;19.50;99.90;;;;;;4980180;28;20071;-53
2022/08/03 05:07:45;;;;;;;7.85;3.13;;;19.60;99.90;;;;;;4972821;28;20042;-53
2022/08/03 05:10:12;;;;;;;8.70;3.53;;;19.40;99.90;;;;;;4962052;28;20053;-54
2022/08/03 05:12:38;;;;;;;9.98;3.40;;;19.60;99.90;;;;;;4960350;28;20054;-53
2022/08/03 05:15:04;;;;;;;7.47;3.17;;;19.90;99.90;;;;;;4960956;28;20050;-53
2022/08/03 05:17:30;;;;;;;9.70;3.40;;;19.80;99.90;;;;;;4959965;28;20049;-54
2022/08/03 05:19:56;;;;;;;11.10;3.45;;;20.10;99.90;;;;;;4961353;28;20038;-55
2022/08/03 05:22:22;;;;;;;9.73;3.60;;;20.10;99.90;;;;;;4959838;28;20058;-54
2022/08/03 05:24:48;;;;;;;9.27;3.38;;;19.80;99.90;;;;;;4960992;28;20050;-54
2022/08/03 05:27:18;;;;;;;6.68;3.25;;;20.10;99.90;;;;;;4961419;28;20038;-54
2022/08/03 05:29:47;;;;;;;8.88;3.30;;;20.10;99.90;;;;;;4960681;28;20125;-54
2022/08/03 05:32:14;;;;;;;10.68;3.47;;;20.20;99.90;;;;;;4960256;28;20042;-53
2022/08/03 05:34:40;;;;;;;10.93;3.20;;;20.30;99.90;;;;;;4960398;28;20073;-54
2022/08/03 05:37:06;;;;;;;10.48;3.13;;;20.30;99.90;;;;;;4943483;28;20113;-53
2022/08/03 05:39:32;;;;;;;8.63;3.28;;;20.40;99.90;;;;;;4959914;28;20093;-53
2022/08/03 05:41:58;;;;;;;6.20;2.42;;;20.20;99.90;;;;;;4960725;28;20409;-53
2022/08/03 05:44:24;;;;;;;9.80;3.35;;;20.00;99.90;;;;;;4959902;28;20057;-52
2022/08/03 05:46:51;;;;;;;8.63;3.00;;;20.10;99.90;;;;;;4960226;28;20105;-54
2022/08/03 05:49:17;;;;;;;14.10;3.15;;;20.40;99.90;;;;;;4958384;28;20051;-56
2022/08/03 05:51:42;;;;;;;12.70;3.28;;;20.70;99.90;;;;;;4960390;28;20046;-54
2022/08/03 05:54:08;;;;;;;8.68;2.50;;;20.70;99.90;;;;;;4960664;28;20055;-53
2022/08/03 05:56:34;;;;;;;9.77;3.20;;;20.50;99.90;;;;;;4960418;28;20105;-54
2022/08/03 05:58:59;;;;;;;8.68;2.70;;;20.50;99.90;;;;;;4959123;28;20104;-54
2022/08/03 06:01:25;;;;;;;9.90;3.08;;;20.40;99.90;;;;;;4959326;28;20533;-54
2022/08/03 06:03:51;;;;;;;9.55;2.92;;;20.30;99.90;;;;;;4960558;28;20096;-54
2022/08/03 06:06:17;;;;;;;10.38;3.08;;;20.60;99.90;;;;;;4961879;28;20557;-53
2022/08/03 06:08:44;;;;;;;15.18;3.25;;;20.80;99.90;;;;;;4968561;28;20047;-52
2022/08/03 06:11:11;;;;;;;11.32;3.20;;;20.90;99.90;;;;;;4960230;28;20062;-52
2022/08/03 06:13:37;;;;;;;12.35;2.85;;;21.20;99.90;;;;;;4959942;28;20125;-54
2022/08/03 06:16:03;;;;;;;14.02;2.80;;;21.50;99.90;;;;;;4958756;28;20047;-53
2022/08/03 06:18:29;;;;;;;10.55;3.15;;;21.50;99.90;;;;;;4957656;28;20047;-54
2022/08/03 06:20:55;;;;;;;11.15;3.25;;;21.40;99.90;;;;;;4959912;28;20168;-53
2022/08/03 06:23:20;;;;;;;18.85;3.33;;;21.40;99.90;;;;;;4959415;28;20118;-53
2022/08/03 06:25:47;;;;;;;11.77;3.33;;;21.40;99.90;;;;;;4958989;28;20046;-53
2022/08/03 06:28:13;;;;;;;12.27;3.25;;;21.30;99.90;;;;;;4959420;28;20410;-52
2022/08/03 06:30:39;;;;;;;9.68;3.08;;;21.10;99.90;;;;;;4958253;28;20123;-54
2022/08/03 06:33:05;;;;;;;9.88;2.95;;;21.00;99.90;;;;;;4959436;28;20047;-52
2022/08/03 06:35:30;;;;;;;10.90;2.90;;;21.00;99.90;;;;;;4958566;28;20050;-54
2022/08/03 06:37:56;;;;;;;12.55;3.13;;;20.90;99.90;;;;;;4941307;28;20141;-54
2022/08/03 06:40:30;;;;;;;10.52;2.88;;;20.70;99.90;;;;;;4942035;28;20133;-52
2022/08/03 06:42:57;;;;;;;14.70;3.22;;;21.00;99.90;;;;;;4959193;28;20042;-55
2022/08/03 06:45:22;;;;;;;8.65;2.90;;;20.90;99.90;;;;;;4958673;28;20047;-54
2022/08/03 06:48:05;;;;;;;10.48;3.35;;;20.90;99.90;;;;;;4958716;28;20051;-52
2022/08/03 06:50:33;;;;;;;8.32;2.80;;;21.00;99.90;;;;;;4957852;28;20697;-54
2022/08/03 06:52:59;;;;;;;7.60;2.65;;;21.40;99.90;;;;;;4958923;28;20043;-54
2022/08/03 06:55:25;;;;;;;14.27;3.35;;;21.40;99.90;;;;;;4959504;28;20401;-53
2022/08/03 06:57:51;;;;;;;10.43;3.20;;;21.70;99.90;;;;;;4959035;28;20039;-54
2022/08/03 07:00:17;;;;;;;8.18;2.92;;;21.60;99.90;;;;;;4959170;28;20077;-54
2022/08/03 07:02:43;;;;;;;8.00;3.00;;;21.70;99.90;;;;;;4958576;28;20085;-53
2022/08/03 07:05:08;;;;;;;8.85;2.00;;;22.00;99.90;;;;;;4959466;28;20087;-53
2022/08/03 07:07:35;;;;;;;11.25;2.90;;;21.70;99.90;;;;;;4970033;28;20058;-53
2022/08/03 07:10:00;;;;;;;9.25;3.08;;;22.10;99.90;;;;;;4959670;28;20049;-52
2022/08/03 07:12:27;;;;;;;14.18;3.35;;;22.20;99.90;;;;;;4957871;28;20408;-53
2022/08/03 07:14:54;;;;;;;12.65;3.47;;;22.50;99.90;;;;;;4958893;28;20050;-52
2022/08/03 07:17:19;;;;;;;9.13;2.35;;;22.20;99.90;;;;;;4958487;28;20504;-55
2022/08/03 07:19:45;;;;;;;11.55;2.90;;;21.90;99.90;;;;;;4959307;28;20054;-56
2022/08/03 07:22:11;;;;;;;7.20;2.22;;;22.00;99.90;;;;;;4958962;28;20046;-54
2022/08/03 07:24:37;;;;;;;9.48;2.50;;;21.90;99.90;;;;;;4958817;28;20772;-54
2022/08/03 07:27:03;;;;;;;11.88;2.80;;;21.90;99.90;;;;;;4959464;28;20054;-55
2022/08/03 07:29:28;;;;;;;12.57;3.33;;;21.90;99.90;;;;;;4961419;28;20177;-54
2022/08/03 07:31:54;;;;;;;13.27;3.25;;;22.00;99.90;;;;;;4961903;28;20490;-53
2022/08/03 07:34:20;;;;;;;15.02;3.22;;;22.10;99.90;;;;;;4962297;28;20178;-54
2022/08/03 07:36:45;;;;;;;15.52;3.05;;;22.40;99.90;;;;;;4962995;28;20046;-57
2022/08/03 07:39:11;;;;;;;9.07;2.50;;;22.80;99.90;;;;;;4963170;28;20051;-53
2022/08/03 07:41:37;;;;;;;8.45;3.03;;;22.50;99.90;;;;;;4961919;28;20520;-54
2022/08/03 07:44:03;;;;;;;7.25;2.80;;;22.70;99.90;;;;;;4961001;28;20476;-52
2022/08/03 07:46:28;;;;;;;9.65;3.70;;;22.60;99.90;;;;;;4961703;28;20054;-53
2022/08/03 07:48:54;;;;;;;8.65;2.30;;;22.40;99.90;;;;;;4962964;28;20074;-53
2022/08/03 07:51:19;;;;;;;10.45;2.80;;;22.40;99.90;;;;;;4961696;28;20042;-52
2022/08/03 07:53:45;;;;;;;12.98;2.83;;;22.30;99.90;;;;;;4963305;28;20481;-53
2022/08/03 07:56:11;;;;;;;8.95;2.95;;;22.60;99.90;;;;;;4962417;28;20043;-50
2022/08/03 07:58:36;;;;;;;11.05;2.60;;;23.10;99.90;;;;;;4962124;28;20081;-54
2022/08/03 08:01:02;;;;;;;9.68;3.35;;;23.20;99.90;;;;;;4961112;28;20043;-56
2022/08/03 08:03:28;;;;;;;9.98;3.00;;;23.20;99.90;;;;;;4962230;28;20053;-53
2022/08/03 08:05:53;;;;;;;9.02;3.47;;;23.40;99.90;;;;;;4964820;28;20058;-53
2022/08/03 08:08:19;;;;;;;12.43;2.97;;;23.40;99.90;;;;;;4970003;28;20054;-53
2022/08/03 08:10:46;;;;;;;10.00;2.72;;;23.60;99.90;;;;;;4961579;28;20583;-56
2022/08/03 08:13:12;;;;;;;8.40;2.40;;;23.60;99.90;;;;;;4962219;28;20051;-54
2022/08/03 08:15:37;;;;;;;12.48;3.15;;;23.20;99.90;;;;;;4961509;28;20047;-52
2022/08/03 08:18:03;;;;;;;10.45;2.33;;;23.20;99.90;;;;;;4961971;28;20105;-53
2022/08/03 08:20:32;;;;;;;6.85;2.75;;;23.00;99.90;;;;;;4961283;28;20050;-53
2022/08/03 08:23:00;;;;;;;11.02;2.60;;;23.30;99.90;;;;;;4961729;28;20514;-54
2022/08/03 08:25:26;;;;;;;10.52;3.13;;;23.40;99.90;;;;;;4961386;28;20047;-54
2022/08/03 08:27:52;;;;;;;12.98;3.90;;;23.30;99.90;;;;;;4961124;28;20678;-51
2022/08/03 08:30:21;;;;;;;8.32;2.22;;;23.50;99.90;;;;;;4961549;28;20046;-53
2022/08/03 08:32:48;;;;;;;8.95;2.75;;;23.60;99.90;;;;;;4961606;28;20054;-54
2022/08/03 08:35:14;;;;;;;8.32;2.50;;;23.60;99.90;;;;;;4962075;28;20062;-53
2022/08/03 08:37:40;;;;;;;6.10;1.92;;;23.50;99.90;;;;;;4942999;28;20054;-54
2022/08/03 08:40:07;;;;;;;9.38;2.95;;;23.60;99.90;;;;;;4960858;28;20129;-54
2022/08/03 08:42:35;;;;;;;9.50;2.58;;;23.70;99.90;;;;;;4961407;28;20038;-53
2022/08/03 08:45:03;;;;;;;8.02;2.83;;;23.90;99.90;;;;;;4961563;28;20259;-53
2022/08/03 08:47:31;;;;;;;11.70;2.90;;;24.10;99.90;;;;;;4960032;28;20564;-54
2022/08/03 08:49:58;;;;;;;8.70;2.58;;;24.30;99.90;;;;;;4961929;28;20046;-53
2022/08/03 08:52:28;;;;;;;10.02;3.22;;;24.30;99.90;;;;;;4961560;28;20137;-53
2022/08/03 08:54:58;;;;;;;7.38;2.60;;;24.20;99.90;;;;;;4960908;28;20130;-51
2022/08/03 08:57:30;;;;;;;8.73;2.53;;;24.20;99.90;;;;;;4961153;28;20042;-54
2022/08/03 08:59:56;;;;;;;7.45;2.47;;;24.40;99.90;;;;;;4961506;28;20694;-56
2022/08/03 09:02:23;;;;;;;8.10;2.20;;;24.80;99.90;;;;;;4960254;28;20043;-53
2022/08/03 09:04:50;;;;;;;8.10;2.25;;;24.90;99.90;;;;;;4944066;28;20053;-58
2022/08/03 09:07:16;;;;;;;9.73;2.53;;;25.00;99.90;;;;;;4969800;28;20058;-58
2022/08/03 09:09:42;;;;;;;9.38;2.60;;;24.90;99.90;;;;;;4963130;28;20193;-56
2022/08/03 09:12:08;;;;;;;10.40;2.10;;;24.40;99.90;;;;;;4960155;28;20090;-57
2022/08/03 09:14:34;;;;;;;10.25;2.78;;;24.60;99.90;;;;;;4960854;28;20665;-57
2022/08/03 09:17:02;;;;;;;8.98;2.28;;;24.50;99.90;;;;;;4960612;28;20215;-57
2022/08/03 09:19:30;;;;;;;8.85;2.60;;;24.50;99.90;;;;;;4961000;28;20039;-57
2022/08/03 09:22:10;;;;;;;12.10;3.10;;;24.80;99.90;;;;;;4960064;28;20153;-56
2022/08/03 09:24:36;;;;;;;11.10;2.83;;;24.80;99.90;;;;;;4960624;28;20671;-57
2022/08/03 09:27:06;;;;;;;10.10;2.55;;;25.10;99.90;;;;;;4961264;28;20074;-58
2022/08/03 09:29:32;;;;;;;10.43;2.50;;;25.40;99.90;;;;;;4960187;28;20050;-58
2022/08/03 09:32:02;;;;;;;9.70;3.00;;;25.60;99.90;;;;;;4960384;28;20058;-57
2022/08/03 09:34:29;;;;;;;7.55;2.42;;;25.50;99.90;;;;;;4960365;28;20453;-58
2022/08/03 09:36:57;;;;;;;8.82;2.20;;;25.30;99.90;;;;;;4960720;28;20053;-57
2022/08/03 09:39:25;;;;;;;10.98;2.50;;;25.60;99.90;;;;;;4960562;28;20062;-53
2022/08/03 09:42:07;;;;;;;9.93;2.22;;;25.70;99.90;;;;;;4960994;28;20051;-56
2022/08/03 09:44:40;;;;;;;6.93;2.38;;;25.90;99.90;;;;;;4959150;28;20089;-58
2022/08/03 09:47:08;;;;;;;10.30;3.28;;;26.10;99.90;;;;;;4959828;28;20058;-57
2022/08/03 09:49:35;;;;;;;7.10;2.05;;;26.00;99.90;;;;;;4959925;28;20134;-57
2022/08/03 09:52:11;;;;;;;13.75;2.85;;;26.50;99.90;;;;;;4959930;28;20065;-57
2022/08/03 09:54:37;;;;;;;13.20;3.50;;;26.50;99.90;;;;;;4958961;28;20104;-57
2022/08/03 09:57:03;;;;;;;8.63;2.63;;;26.00;99.90;;;;;;4960182;28;20057;-58
2022/08/03 09:59:31;;;;;;;9.88;2.63;;;26.60;99.90;;;;;;4960059;28;20042;-57
2022/08/03 10:01:58;;;;;;;15.45;2.88;;;26.80;99.90;;;;;;4959094;28;20088;-58
2022/08/03 10:04:25;;;;;;;10.10;3.08;;;27.10;99.90;;;;;;4952500;28;20043;-58
2022/08/03 10:07:07;;;;;;;11.93;3.05;;;26.70;99.90;;;;;;4973564;28;20072;-59
2022/08/03 10:09:33;;;;;;;9.70;2.72;;;27.10;99.90;;;;;;4961639;28;20047;-57
2022/08/03 10:12:09;;;;;;;12.68;3.13;;;26.90;99.90;;;;;;4959763;28;20649;-57
2022/08/03 10:14:38;;;;;;;6.35;1.88;;;27.00;99.90;;;;;;4942928;28;20059;-58
2022/08/03 10:17:03;;;;;;;10.93;2.95;;;26.20;99.90;;;;;;4959077;28;20054;-57
2022/08/03 10:19:29;;;;;;;11.23;2.92;;;26.70;99.90;;;;;;4970487;28;20054;-58
2022/08/03 10:21:59;;;;;;;6.38;2.15;;;26.70;99.90;;;;;;4960892;28;20038;-57
2022/08/03 10:24:28;;;;;;;6.72;2.03;;;27.20;99.90;;;;;;4957461;28;20046;-57
2022/08/03 10:27:02;;;;;;;10.43;2.63;;;27.00;99.90;;;;;;4959630;28;20410;-57
2022/08/03 10:29:31;;;;;;;13.75;3.00;;;27.10;99.90;;;;;;4959030;28;20101;-57
2022/08/03 10:31:59;;;;;;;6.32;2.28;;;27.20;99.90;;;;;;4958820;28;20051;-57
2022/08/03 10:34:29;;;;;;;10.85;2.53;;;27.50;99.90;;;;;;4958163;28;20121;-57
2022/08/03 10:36:58;;;;;;;10.48;2.50;;;27.60;99.90;;;;;;4959275;28;20059;-57
2022/08/03 10:39:28;;;;;;;7.70;2.55;;;27.80;99.90;;;;;;4958927;28;20082;-57
2022/08/03 10:41:57;;;;;;;7.38;1.95;;;28.00;99.90;;;;;;4958568;28;20055;-57
2022/08/03 10:44:26;;;;;;;9.38;2.33;;;28.40;99.90;;;;;;4958828;28;20049;-57
2022/08/03 10:46:53;;;;;;;11.77;2.80;;;27.90;99.90;;;;;;4959281;28;20051;-58
2022/08/03 10:49:19;;;;;;;6.82;2.13;;;28.20;99.90;;;;;;4958980;28;20045;-57
2022/08/03 10:51:47;;;;;;;7.22;2.15;;;28.00;99.90;;;;;;4959394;28;20082;-57
2022/08/03 10:57:33;;;;;;;8.88;2.55;;;27.90;99.90;;;;;;4959717;28;20035;-57
2022/08/03 10:58:02;;;;;;;6.13;2.28;;;28.30;99.90;;;;;;4959281;28;20047;-58
2022/08/03 11:00:29;;;;;;;13.73;3.00;;;28.10;99.90;;;;;;4936323;29;20047;-57
2022/08/03 11:03:09;;;;;;;7.07;2.35;;;27.90;99.90;;;;;;4934237;28;20141;-58
2022/08/03 11:05:45;;;;;;;11.20;2.38;;;28.20;99.90;;;;;;4958944;28;20405;-58
2022/08/03 11:08:29;;;;;;;13.05;2.90;;;28.50;99.90;;;;;;4968225;28;20097;-56
2022/08/03 11:11:17;;;;;;;8.23;2.50;;;28.60;99.90;;;;;;4978457;28;20053;-57
2022/08/03 11:14:06;;;;;;;7.55;2.05;;;28.90;99.90;;;;;;4978781;28;20273;-57
2022/08/03 11:16:45;;;;;;;9.38;2.60;;;28.60;99.90;;;;;;4976820;28;20054;-57
2022/08/03 11:19:16;;;;;;;11.20;2.70;;;28.60;99.90;;;;;;4968533;28;20054;-57
2022/08/03 11:21:48;;;;;;;8.57;2.35;;;28.90;99.90;;;;;;4978887;28;20113;-57
2022/08/03 11:24:36;;;;;;;10.52;2.47;;;28.30;99.90;;;;;;4979045;28;20058;-74
2022/08/03 11:27:16;;;;;;;13.05;2.72;;;28.70;99.90;;;;;;4978490;28;20046;-57
2022/08/03 11:30:18;;;;;;;9.73;2.40;;;28.90;99.90;;;;;;4978940;28;20406;-58
2022/08/03 11:32:46;;;;;;;8.48;2.42;;;28.70;99.90;;;;;;4977323;28;20042;-57
2022/08/03 11:35:14;;;;;;;8.95;2.38;;;28.60;99.90;;;;;;4978171;28;20164;-56
2022/08/03 11:38:04;;;;;;;10.68;2.65;;;28.70;99.90;;;;;;4960836;28;20050;-58
2022/08/03 11:40:38;;;;;;;15.30;2.60;;;29.10;99.90;;;;;;4978011;28;20050;-57
2022/08/03 11:43:06;;;;;;;10.68;2.55;;;29.30;99.90;;;;;;4978429;28;20042;-57
2022/08/03 11:45:32;;;;;;;8.70;2.80;;;29.20;99.90;;;;;;4976374;28;20050;-58
2022/08/03 11:48:01;;;;;;;11.98;3.25;;;29.10;99.90;;;;;;4978114;28;20257;-57
2022/08/03 11:50:36;;;;;;;15.07;3.17;;;29.40;99.90;;;;;;4977580;28;20046;-58
2022/08/03 11:53:04;;;;;;;16.85;3.00;;;28.90;99.90;;;;;;4978116;28;20050;-58
2022/08/03 11:55:30;;;;;;;12.27;3.00;;;29.20;99.90;;;;;;4977943;28;20047;-58
2022/08/03 11:57:58;;;;;;;12.65;2.95;;;29.00;99.90;;;;;;4978076;28;20093;-58
2022/08/03 12:00:30;;;;;;;11.63;2.80;;;29.30;99.90;;;;;;4976899;28;20082;-58
2022/08/03 12:03:08;;;;;;;14.07;3.40;;;29.40;99.90;;;;;;4960048;28;20042;-57
2022/08/03 12:05:45;;;;;;;10.07;3.20;;;29.30;99.90;;;;;;4976863;28;20042;-59
2022/08/03 12:08:13;;;;;;;15.48;3.22;;;28.90;99.90;;;;;;4966822;28;20096;-58
2022/08/03 12:10:40;;;;;;;6.65;1.70;;;29.40;99.90;;;;;;4978026;28;20409;-58
2022/08/03 12:13:07;;;;;;;19.00;3.55;;;29.10;99.90;;;;;;4977983;28;20297;-58
2022/08/03 12:15:35;;;;;;;11.32;3.15;;;29.20;99.90;;;;;;4981182;28;20046;-59
2022/08/03 12:18:02;;;;;;;11.35;2.90;;;29.30;99.90;;;;;;4963487;28;20056;-58
2022/08/03 12:20:30;;;;;;;9.02;2.80;;;29.30;99.90;;;;;;4981689;28;20054;-58
2022/08/03 12:23:05;;;;;;;14.85;3.15;;;29.30;99.90;;;;;;4981730;28;20049;-58
2022/08/03 12:25:31;;;;;;;12.18;2.70;;;29.20;99.90;;;;;;4962847;28;20429;-58
2022/08/03 12:28:11;;;;;;;17.17;2.60;;;29.70;99.90;;;;;;4948500;28;20283;-57
2022/08/03 12:30:38;;;;;;;12.38;2.70;;;30.00;99.90;;;;;;4981027;28;20050;-58
2022/08/03 12:33:19;;;;;;;10.43;2.15;;;29.80;99.90;;;;;;4980858;28;20042;-58
2022/08/03 12:35:47;;;;;;;13.10;3.30;;;29.70;99.90;;;;;;4964027;28;20129;-59
2022/08/03 12:38:17;;;;;;;11.93;2.67;;;30.10;99.90;;;;;;4981648;28;20038;-58
2022/08/03 12:40:43;;;;;;;13.02;3.20;;;30.00;99.90;;;;;;4980982;28;20042;-58
2022/08/03 12:43:13;;;;;;;18.20;3.05;;;30.00;99.90;;;;;;4981259;28;20673;-58
2022/08/03 12:45:39;;;;;;;12.32;3.05;;;29.80;99.90;;;;;;4980581;28;20532;-58
2022/08/03 12:48:09;;;;;;;14.68;2.72;;;29.80;99.90;;;;;;4980429;28;20030;-58
2022/08/03 12:50:36;;;;;;;12.48;2.90;;;29.30;99.90;;;;;;4981357;28;20496;-58
2022/08/03 12:53:05;;;;;;;13.95;3.40;;;29.50;99.90;;;;;;4981426;28;20126;-58
2022/08/03 12:55:34;;;;;;;13.48;3.28;;;29.30;99.90;;;;;;4980925;28;20054;-57
2022/08/03 12:58:06;;;;;;;12.80;2.60;;;29.60;99.90;;;;;;4980513;28;20061;-58
2022/08/03 13:00:32;;;;;;;9.95;2.83;;;29.70;99.90;;;;;;4980108;28;20484;-58